Portada
METAR-TAF:

METAR-TAF

Aeropuertos :

Albacete, España

Aeropuerto de Albacete

latitud: 38-57N, longitud: 001-51W, altitud: 702 m

Observación

El informe se hizo hace 22 minutos, a las 11:00 UTC
Viento 1 kt con dirección variable
Temperatura 12°C
Humedad 40%
Presión 1021 hPa
Visibilidad 10 km o más
sin nubes por debajo de 1500 m y sin presencia de cumulonimbus.

METAR: LEAB 231100Z VRB01KT CAVOK 12/M01 Q1021 NOSIG

Hora: 12:22 (11:22 UTC)

Pronóstico

El informe se hizo hace 3 horas y 22 minutos, a las 08:00 UTC
Pronóstico válido del 23 a las 09 UTC al 23 a las 18 UTC
Viento 5 kt con dirección variable
Visibilidad 10 km o más
sin nubes por debajo de 1500 m y sin presencia de cumulonimbus.

TAF: LEAB 230800Z 2309/2318 VRB05KT CAVOK

Observaciones y pronósticos meteorológicos de más de 4000 aeropuertos (mensajes METAR y TAF).

Los puntos amarillos y rojos representan las estaciones disponibles.

Ponga el ratón en el punto deseado para ver el nombre de la estación.

Haga clic para ver las observaciones y los pronósticos meteorológicos.

Para cambiar el mapa : haga clic en los botones verdes con una cruz de color negro para hacer un zoom, en el botón verde con un guión para alejar o en las flechas verdes para mapas adyacentes.


METAR-TAF: